createdAt,value
2023-08-17T00:02:14.339Z,1.20
2023-08-17T00:04:41.980Z,1.25
2023-08-17T00:07:09.018Z,1.00
2023-08-17T00:09:35.877Z,1.45
2023-08-17T00:12:03.000Z,1.55
2023-08-17T00:14:30.976Z,1.05
2023-08-17T00:16:57.871Z,1.50
2023-08-17T00:19:24.696Z,0.90
2023-08-17T00:21:52.944Z,1.40
2023-08-17T00:24:19.783Z,1.55
2023-08-17T00:26:46.654Z,0.75
2023-08-17T00:29:13.548Z,1.02
2023-08-17T00:31:40.384Z,1.00
2023-08-17T00:34:07.986Z,1.08
2023-08-17T00:36:34.893Z,1.00
2023-08-17T00:39:02.392Z,0.85
2023-08-17T00:41:29.794Z,0.80
2023-08-17T00:43:56.670Z,0.57
2023-08-17T00:46:25.905Z,0.70
2023-08-17T00:48:53.474Z,0.90
2023-08-17T00:51:21.754Z,0.68
2023-08-17T00:53:48.944Z,1.73
2023-08-17T00:56:15.842Z,0.93
2023-08-17T00:58:43.925Z,0.70
2023-08-17T01:01:10.875Z,0.75
2023-08-17T01:03:41.871Z,0.68
2023-08-17T01:06:09.412Z,0.90
2023-08-17T01:08:37.986Z,1.15
2023-08-17T01:11:19.661Z,1.10
2023-08-17T01:13:56.707Z,1.10
2023-08-17T01:16:36.152Z,0.77
2023-08-17T01:19:08.801Z,0.90
2023-08-17T01:21:50.969Z,0.90
2023-08-17T01:24:17.871Z,1.42
2023-08-17T01:26:44.728Z,1.25
2023-08-17T01:29:12.251Z,0.70
2023-08-17T01:31:55.201Z,0.70
2023-08-17T01:34:25.084Z,0.70
2023-08-17T01:36:57.196Z,0.82
2023-08-17T01:39:32.017Z,0.68
2023-08-17T01:42:01.342Z,1.63
2023-08-17T01:44:28.790Z,0.80
2023-08-17T01:46:55.775Z,1.20
2023-08-17T01:49:23.586Z,2.25
2023-08-17T01:51:50.428Z,1.02
2023-08-17T01:54:17.323Z,0.85
2023-08-17T01:56:44.224Z,1.38
2023-08-17T01:59:11.170Z,1.45
2023-08-17T02:01:38.633Z,1.10
2023-08-17T02:04:05.721Z,1.05
2023-08-17T02:06:32.539Z,1.05
2023-08-17T02:09:00.303Z,1.42
2023-08-17T02:11:28.202Z,1.38
2023-08-17T02:13:55.093Z,1.13
2023-08-17T02:16:21.967Z,1.25
2023-08-17T02:18:49.558Z,1.02
2023-08-17T02:21:16.436Z,1.20
2023-08-17T02:23:43.329Z,1.20
2023-08-17T02:26:10.905Z,1.23
2023-08-17T02:28:37.801Z,1.58
2023-08-17T02:31:07.603Z,2.72
2023-08-17T02:33:34.883Z,1.10
2023-08-17T02:36:02.506Z,1.42
2023-08-17T02:38:29.636Z,1.30
2023-08-17T02:40:56.483Z,1.17
2023-08-17T02:43:23.438Z,1.75
2023-08-17T02:45:51.675Z,1.48
2023-08-17T02:48:18.598Z,1.35
2023-08-17T02:50:45.950Z,1.92
2023-08-17T02:53:12.895Z,1.67
2023-08-17T02:55:39.754Z,1.50
2023-08-17T02:58:08.572Z,1.33
2023-08-17T03:00:35.474Z,1.67
2023-08-17T03:03:02.674Z,1.90
2023-08-17T03:05:29.645Z,2.78
2023-08-17T03:07:56.502Z,1.55
2023-08-17T03:10:26.056Z,1.70
2023-08-17T03:12:53.263Z,1.83
2023-08-17T03:15:20.560Z,1.20
2023-08-17T03:17:47.544Z,1.80
2023-08-17T03:20:14.405Z,1.35
2023-08-17T03:22:41.522Z,1.90
2023-08-17T03:25:09.019Z,1.17
2023-08-17T03:27:35.907Z,1.30
2023-08-17T03:30:05.368Z,1.55
2023-08-17T03:32:32.269Z,1.52
2023-08-17T03:34:59.174Z,1.73
2023-08-17T03:37:26.427Z,1.48
2023-08-17T03:39:53.632Z,1.85
2023-08-17T03:42:20.543Z,1.23
2023-08-17T03:44:47.377Z,1.80
2023-08-17T03:47:15.538Z,1.70
2023-08-17T03:49:42.368Z,1.63
2023-08-17T03:52:09.230Z,1.65
2023-08-17T03:54:37.214Z,1.55
2023-08-17T03:57:04.162Z,1.42
2023-08-17T03:59:30.996Z,2.33
2023-08-17T04:01:58.191Z,1.30
2023-08-17T04:04:26.716Z,1.33
2023-08-17T04:06:53.610Z,1.58
2023-08-17T04:09:20.453Z,1.33
2023-08-17T04:11:47.351Z,1.40
2023-08-17T04:14:15.218Z,1.45
2023-08-17T04:16:42.609Z,1.90
2023-08-17T04:19:09.811Z,1.60
2023-08-17T04:21:36.831Z,2.13
2023-08-17T04:24:04.385Z,2.08
2023-08-17T04:26:31.207Z,1.95
2023-08-17T04:28:58.096Z,1.75
2023-08-17T04:31:25.067Z,1.20
2023-08-17T04:33:59.129Z,1.90
2023-08-17T04:36:26.066Z,3.08
2023-08-17T04:38:54.990Z,2.00
2023-08-17T04:41:21.905Z,1.63
2023-08-17T04:43:50.489Z,1.60
2023-08-17T04:46:17.924Z,1.77
2023-08-17T04:48:45.116Z,2.17
2023-08-17T04:51:14.196Z,1.52
2023-08-17T04:53:42.138Z,1.50
2023-08-17T04:56:09.797Z,1.58
2023-08-17T04:58:36.645Z,2.10
2023-08-17T05:01:03.613Z,1.42
2023-08-17T05:03:33.698Z,1.90
2023-08-17T05:06:02.072Z,1.38
2023-08-17T05:08:28.972Z,1.45
2023-08-17T05:10:56.137Z,1.50
2023-08-17T05:13:23.167Z,1.55
2023-08-17T05:15:50.070Z,1.42
2023-08-17T05:18:16.976Z,1.85
2023-08-17T05:20:45.290Z,1.92
2023-08-17T05:23:12.154Z,2.40
2023-08-17T05:25:39.026Z,1.85
2023-08-17T05:28:06.445Z,1.90
2023-08-17T05:30:34.306Z,1.35
2023-08-17T05:33:01.242Z,1.70
2023-08-17T05:35:28.368Z,2.25
2023-08-17T05:37:55.299Z,1.95
2023-08-17T05:40:22.260Z,1.73
2023-08-17T05:42:49.117Z,2.05
2023-08-17T05:45:16.000Z,2.03
2023-08-17T05:47:42.900Z,2.35
2023-08-17T05:50:10.089Z,1.90
2023-08-17T05:52:36.909Z,1.95
2023-08-17T05:55:03.866Z,2.22
2023-08-17T05:57:30.760Z,1.85
2023-08-17T05:59:57.618Z,2.13
2023-08-17T06:02:24.668Z,3.10
2023-08-17T06:04:51.610Z,1.77
2023-08-17T06:07:18.532Z,1.70
2023-08-17T06:09:45.363Z,2.25
2023-08-17T06:12:12.228Z,1.55
2023-08-17T06:14:39.118Z,1.80
2023-08-17T06:17:07.150Z,2.00
2023-08-17T06:19:34.503Z,3.20
2023-08-17T06:22:01.343Z,2.40
2023-08-17T06:24:28.189Z,1.83
2023-08-17T06:26:55.104Z,1.95
2023-08-17T06:29:21.940Z,2.28
2023-08-17T06:31:48.778Z,2.10
2023-08-17T06:34:16.328Z,3.40
2023-08-17T06:36:43.174Z,2.53
2023-08-17T06:39:10.332Z,1.58
2023-08-17T06:41:37.199Z,2.35
2023-08-17T06:44:04.259Z,1.40
2023-08-17T06:46:31.236Z,1.90
2023-08-17T06:48:58.101Z,2.13
2023-08-17T06:51:24.902Z,1.67
2023-08-17T06:53:51.807Z,2.22
2023-08-17T06:56:18.694Z,2.45
2023-08-17T06:58:45.542Z,1.63
2023-08-17T07:01:12.437Z,2.00
2023-08-17T07:03:39.530Z,1.80
2023-08-17T07:06:06.514Z,2.65
2023-08-17T07:08:34.139Z,2.25
2023-08-17T07:11:01.087Z,3.08
2023-08-17T07:13:27.958Z,2.65
2023-08-17T07:15:55.047Z,1.98
2023-08-17T07:18:21.994Z,1.95
2023-08-17T07:20:50.391Z,2.30
2023-08-17T07:23:17.276Z,1.77
2023-08-17T07:25:45.367Z,2.42
2023-08-17T07:28:12.318Z,2.70
2023-08-17T07:30:39.153Z,2.75
2023-08-17T07:33:06.046Z,1.70
2023-08-17T07:35:32.933Z,1.92
2023-08-17T07:38:08.967Z,2.22
2023-08-17T07:40:36.918Z,2.60
2023-08-17T07:43:03.988Z,2.03
2023-08-17T07:45:30.909Z,2.20
2023-08-17T07:47:57.842Z,2.15
2023-08-17T07:50:24.736Z,2.15
2023-08-17T07:52:51.576Z,1.83
2023-08-17T07:55:18.480Z,2.30
2023-08-17T07:57:45.354Z,2.10
2023-08-17T08:00:12.730Z,2.42
2023-08-17T08:02:39.592Z,2.63
2023-08-17T08:05:07.282Z,2.35
2023-08-17T08:07:34.217Z,2.45
2023-08-17T08:10:01.092Z,1.60
2023-08-17T08:12:27.999Z,1.80
2023-08-17T08:14:54.826Z,2.88
2023-08-17T08:17:21.693Z,2.25
2023-08-17T08:19:48.579Z,2.15
2023-08-17T08:22:15.404Z,3.53
2023-08-17T08:24:43.368Z,2.42
2023-08-17T08:27:11.738Z,2.73
2023-08-17T08:29:38.813Z,2.30
2023-08-17T08:32:05.790Z,3.20
2023-08-17T08:34:32.783Z,2.70
2023-08-17T08:36:59.641Z,2.45
2023-08-17T08:39:27.235Z,2.47
2023-08-17T08:41:54.655Z,2.47
2023-08-17T08:44:21.876Z,2.53
2023-08-17T08:46:49.991Z,3.17
2023-08-17T08:49:24.162Z,2.47
2023-08-17T08:51:53.779Z,2.95
2023-08-17T08:54:25.791Z,1.85
2023-08-17T08:57:00.225Z,2.03
2023-08-17T08:59:29.505Z,2.13
2023-08-17T09:01:59.861Z,2.42
2023-08-17T09:06:56.361Z,2.90
2023-08-17T09:09:29.472Z,2.92
2023-08-17T09:11:57.468Z,2.15
2023-08-17T09:14:24.305Z,2.67
2023-08-17T09:16:51.259Z,2.45
2023-08-17T09:19:19.895Z,2.40
2023-08-17T09:21:50.891Z,2.42
2023-08-17T09:24:18.088Z,2.10
2023-08-17T09:26:45.027Z,1.48
2023-08-17T09:29:19.641Z,2.47
2023-08-17T09:31:50.084Z,2.33
2023-08-17T09:34:17.342Z,2.30
2023-08-17T09:36:47.671Z,2.63
2023-08-17T09:39:16.349Z,1.98
2023-08-17T09:41:44.002Z,2.10
2023-08-17T09:44:12.553Z,2.08
2023-08-17T09:46:40.180Z,2.15
2023-08-17T09:49:08.076Z,2.25
2023-08-17T09:51:35.164Z,2.08
2023-08-17T09:54:03.353Z,2.65
2023-08-17T09:56:32.716Z,2.83
2023-08-17T09:58:59.704Z,2.83
2023-08-17T10:01:28.867Z,2.03
2023-08-17T10:03:57.646Z,2.65
2023-08-17T10:06:28.028Z,2.75
2023-08-17T10:08:57.875Z,2.53
2023-08-17T10:11:27.244Z,2.53
2023-08-17T10:14:00.917Z,2.40
2023-08-17T10:16:37.442Z,2.72
2023-08-17T10:19:15.097Z,2.78
2023-08-17T10:22:19.084Z,3.08
2023-08-17T10:24:47.472Z,2.40
2023-08-17T10:27:15.031Z,2.60
2023-08-17T10:29:43.022Z,1.98
2023-08-17T10:32:10.067Z,2.10
2023-08-17T10:34:37.983Z,2.10
2023-08-17T10:37:05.681Z,2.17
2023-08-17T10:39:32.599Z,3.03
2023-08-17T10:42:00.057Z,4.10
2023-08-17T10:44:43.362Z,2.72
2023-08-17T10:50:21.896Z,1.90
2023-08-17T10:52:50.463Z,3.80
2023-08-17T10:55:20.013Z,2.25
2023-08-17T10:57:46.911Z,4.70
2023-08-17T11:00:27.925Z,2.88
2023-08-17T11:03:00.360Z,2.55
2023-08-17T11:05:44.106Z,2.80
2023-08-17T11:08:34.295Z,2.20
2023-08-17T11:11:16.968Z,2.63
2023-08-17T11:13:45.803Z,3.08
2023-08-17T11:16:18.503Z,2.67
2023-08-17T11:18:46.554Z,2.47
2023-08-17T11:21:19.348Z,2.50
2023-08-17T11:23:47.334Z,2.35
2023-08-17T11:26:17.655Z,2.65
2023-08-17T11:28:46.013Z,2.20
2023-08-17T11:31:15.527Z,2.83
2023-08-17T11:33:42.688Z,2.80
2023-08-17T11:36:11.029Z,2.83
2023-08-17T11:38:43.390Z,2.58
2023-08-17T11:41:18.506Z,3.22
2023-08-17T11:43:47.004Z,3.38
2023-08-17T11:46:14.067Z,2.55
2023-08-17T11:48:41.171Z,2.58
2023-08-17T11:51:08.107Z,2.50
2023-08-17T11:53:40.371Z,2.75
2023-08-17T11:56:10.045Z,2.75
2023-08-17T11:58:46.447Z,2.50
2023-08-17T12:01:16.815Z,2.40
2023-08-17T12:03:44.492Z,2.65
2023-08-17T12:06:14.248Z,3.25
2023-08-17T12:08:49.413Z,2.75
2023-08-17T12:11:19.130Z,2.90
2023-08-17T12:13:51.425Z,2.30
2023-08-17T12:16:19.634Z,2.65
2023-08-17T12:18:50.682Z,3.17
2023-08-17T12:21:17.877Z,2.20
2023-08-17T12:23:44.842Z,2.65
2023-08-17T12:26:18.757Z,2.85
2023-08-17T12:28:45.847Z,3.75
2023-08-17T12:31:12.699Z,2.60
2023-08-17T12:33:39.622Z,2.67
2023-08-17T12:36:08.025Z,2.10
2023-08-17T12:38:35.020Z,2.90
2023-08-17T12:41:06.798Z,2.72
2023-08-17T12:43:34.184Z,2.53
2023-08-17T12:46:01.054Z,2.80
2023-08-17T12:48:28.004Z,2.83
2023-08-17T12:50:54.816Z,2.83
2023-08-17T12:53:21.707Z,2.80
2023-08-17T12:55:48.708Z,3.10
2023-08-17T12:58:15.528Z,2.38
2023-08-17T13:00:42.415Z,2.85
2023-08-17T13:03:10.061Z,3.20
2023-08-17T13:05:37.857Z,4.68
2023-08-17T13:08:05.080Z,3.05
2023-08-17T13:10:31.927Z,3.72
2023-08-17T13:13:00.584Z,2.72
2023-08-17T13:15:28.067Z,3.15
2023-08-17T13:17:54.925Z,2.40
2023-08-17T13:20:22.040Z,2.72
2023-08-17T13:22:48.988Z,2.03
2023-08-17T13:25:15.939Z,2.63
2023-08-17T13:27:42.929Z,2.70
2023-08-17T13:30:10.421Z,2.22
2023-08-17T13:32:37.550Z,2.63
2023-08-17T13:35:04.953Z,2.10
2023-08-17T13:37:32.260Z,2.03
2023-08-17T13:39:59.795Z,1.73
2023-08-17T13:42:26.826Z,1.98
2023-08-17T13:44:53.930Z,2.17
2023-08-17T13:47:20.796Z,1.98
2023-08-17T13:49:47.636Z,1.80
2023-08-17T13:52:14.536Z,1.83
2023-08-17T13:54:41.660Z,1.95
2023-08-17T13:57:08.563Z,2.20
2023-08-17T13:59:35.462Z,1.83
2023-08-17T14:02:02.440Z,1.60
2023-08-17T14:04:29.408Z,2.13
2023-08-17T14:06:56.333Z,1.70
2023-08-17T14:09:23.223Z,1.60
2023-08-17T14:11:50.076Z,2.55
2023-08-17T14:14:16.914Z,1.95
2023-08-17T14:16:43.829Z,1.85
2023-08-17T14:19:10.923Z,2.05
2023-08-17T14:21:37.800Z,2.10
2023-08-17T14:24:05.323Z,2.33
2023-08-17T14:26:33.140Z,1.73
2023-08-17T14:29:00.265Z,2.28
2023-08-17T14:31:27.243Z,2.05
2023-08-17T14:33:55.981Z,2.20
2023-08-17T14:36:22.834Z,1.58
2023-08-17T14:38:49.677Z,1.73
2023-08-17T14:41:16.790Z,1.83
2023-08-17T14:43:43.637Z,1.45
2023-08-17T14:46:14.838Z,1.25
2023-08-17T14:48:42.237Z,1.52
2023-08-17T14:51:09.192Z,1.50
2023-08-17T14:53:39.310Z,1.42
2023-08-17T14:56:06.833Z,0.90
2023-08-17T14:58:33.792Z,1.38
2023-08-17T15:01:01.079Z,1.17
2023-08-17T15:03:28.176Z,1.88
2023-08-17T15:05:55.197Z,0.88
2023-08-17T15:08:22.156Z,1.55
2023-08-17T15:10:49.267Z,1.27
2023-08-17T15:13:16.688Z,1.35
2023-08-17T15:15:46.371Z,1.23
2023-08-17T15:18:13.389Z,1.60
2023-08-17T15:20:40.274Z,1.60
2023-08-17T15:23:07.237Z,1.48
2023-08-17T15:25:34.834Z,1.23
2023-08-17T15:28:01.728Z,1.70
2023-08-17T15:30:28.685Z,1.48
2023-08-17T15:32:55.674Z,1.60
2023-08-17T15:35:22.883Z,1.70
2023-08-17T15:37:49.737Z,2.05
2023-08-17T15:40:16.853Z,2.30
2023-08-17T15:42:43.796Z,1.30
2023-08-17T15:45:10.833Z,2.78
2023-08-17T15:47:37.753Z,1.70
2023-08-17T15:50:04.903Z,1.27
2023-08-17T15:52:31.731Z,1.25
2023-08-17T15:54:58.562Z,1.40
2023-08-17T15:57:25.837Z,1.10
2023-08-17T15:59:53.512Z,1.20
2023-08-17T16:02:20.579Z,0.88
2023-08-17T16:04:47.510Z,1.23
2023-08-17T16:07:14.784Z,1.13
2023-08-17T16:09:42.074Z,1.83
2023-08-17T16:12:10.393Z,1.70
2023-08-17T16:14:37.395Z,1.70
2023-08-17T16:17:04.956Z,1.10
2023-08-17T16:19:31.922Z,0.93
2023-08-17T16:21:58.800Z,1.48
2023-08-17T16:24:27.344Z,1.25
2023-08-17T16:26:55.267Z,1.00
2023-08-17T16:29:22.125Z,1.48
2023-08-17T16:32:01.740Z,1.48
2023-08-17T16:34:32.996Z,1.42
2023-08-17T16:37:00.102Z,1.48
2023-08-17T16:39:28.851Z,1.90
2023-08-17T16:41:55.775Z,2.10
2023-08-17T16:44:22.632Z,1.50
2023-08-17T16:46:51.410Z,1.58
2023-08-17T16:49:18.887Z,1.10
2023-08-17T16:51:45.838Z,1.15
2023-08-17T16:54:12.776Z,1.60
2023-08-17T16:56:44.299Z,0.80
2023-08-17T16:59:12.216Z,1.27
2023-08-17T17:01:39.533Z,1.63
2023-08-17T17:04:07.321Z,1.13
2023-08-17T17:06:34.310Z,1.17
2023-08-17T17:09:01.174Z,1.17
2023-08-17T17:11:28.132Z,1.42
2023-08-17T17:13:57.646Z,1.35
2023-08-17T17:16:25.851Z,1.23
2023-08-17T17:18:52.830Z,1.20
2023-08-17T17:21:19.937Z,1.30
2023-08-17T17:23:46.869Z,1.05
2023-08-17T17:26:14.393Z,0.98
2023-08-17T17:28:41.406Z,1.45
2023-08-17T17:31:08.496Z,1.20
2023-08-17T17:33:35.325Z,1.27
2023-08-17T17:36:02.315Z,0.98
2023-08-17T17:38:29.339Z,0.90
2023-08-17T17:41:01.104Z,1.13
2023-08-17T17:43:28.120Z,1.20
2023-08-17T17:45:54.996Z,1.67
2023-08-17T17:48:21.851Z,1.17
2023-08-17T17:50:48.821Z,1.30
2023-08-17T17:53:15.647Z,1.02
2023-08-17T17:55:42.685Z,1.70
2023-08-17T17:58:09.558Z,1.08
2023-08-17T18:00:36.744Z,1.50
2023-08-17T18:03:14.584Z,1.20
2023-08-17T18:05:43.999Z,1.50
2023-08-17T18:08:11.435Z,1.13
2023-08-17T18:10:40.058Z,1.20
2023-08-17T18:13:08.144Z,1.25
2023-08-17T18:15:36.365Z,1.10
2023-08-17T18:18:04.521Z,1.42
2023-08-17T18:20:31.754Z,1.17
2023-08-17T18:22:59.182Z,2.35
2023-08-17T18:25:26.377Z,1.20
2023-08-17T18:27:53.259Z,1.23
2023-08-17T18:30:20.207Z,1.48
2023-08-17T18:32:47.121Z,1.45
2023-08-17T18:35:13.994Z,1.20
2023-08-17T18:37:41.949Z,1.75
2023-08-17T18:40:10.734Z,1.60
2023-08-17T18:42:37.665Z,1.73
2023-08-17T18:45:04.892Z,1.52
2023-08-17T18:47:31.863Z,1.45
2023-08-17T18:49:58.850Z,2.28
2023-08-17T18:52:27.971Z,1.80
2023-08-17T18:55:03.218Z,2.77
2023-08-17T18:57:33.733Z,1.50
2023-08-17T19:00:02.699Z,1.63
2023-08-17T19:02:29.571Z,1.95
2023-08-17T19:04:57.897Z,2.13
2023-08-17T19:07:27.859Z,1.90
2023-08-17T19:09:55.164Z,1.80
2023-08-17T19:12:22.519Z,1.90
2023-08-17T19:14:49.417Z,2.47
2023-08-17T19:17:16.482Z,2.08
2023-08-17T19:19:43.360Z,2.10
2023-08-17T19:22:10.546Z,2.05
2023-08-17T19:24:38.708Z,1.77
2023-08-17T19:27:05.855Z,2.35
2023-08-17T19:29:32.737Z,2.20
2023-08-17T19:31:59.735Z,1.98
2023-08-17T19:34:26.702Z,2.42
2023-08-17T19:36:53.590Z,2.20
2023-08-17T19:39:20.480Z,2.03
2023-08-17T19:41:48.460Z,2.53
2023-08-17T19:44:15.734Z,2.40
2023-08-17T19:46:42.823Z,3.05
2023-08-17T19:49:10.094Z,2.25
2023-08-17T19:51:37.656Z,3.17
2023-08-17T19:54:05.194Z,2.78
2023-08-17T19:56:32.236Z,1.95
2023-08-17T19:58:59.070Z,2.22
2023-08-17T20:01:26.504Z,2.17
2023-08-17T20:03:54.717Z,3.03
2023-08-17T20:06:21.789Z,2.25
2023-08-17T20:08:48.688Z,2.58
2023-08-17T20:11:17.159Z,1.83
2023-08-17T20:13:44.159Z,2.10
2023-08-17T20:16:11.205Z,1.70
2023-08-17T20:18:38.252Z,2.50
2023-08-17T20:21:07.111Z,1.60
2023-08-17T20:23:34.465Z,2.10
2023-08-17T20:26:01.627Z,1.70
2023-08-17T20:28:28.526Z,1.80
2023-08-17T20:30:59.164Z,1.95
2023-08-17T20:33:26.905Z,2.35
2023-08-17T20:35:55.691Z,1.85
2023-08-17T20:38:23.568Z,2.40
2023-08-17T20:40:51.289Z,2.15
2023-08-17T20:43:18.524Z,2.28
2023-08-17T20:45:45.464Z,2.17
2023-08-17T20:48:12.935Z,1.77
2023-08-17T20:50:40.902Z,2.35
2023-08-17T20:53:08.578Z,2.17
2023-08-17T20:55:38.764Z,2.20
2023-08-17T20:58:05.693Z,2.00
2023-08-17T21:00:33.807Z,1.95
2023-08-17T21:03:00.720Z,2.05
2023-08-17T21:05:28.986Z,2.60
2023-08-17T21:07:56.775Z,2.30
2023-08-17T21:10:24.447Z,2.30
2023-08-17T21:12:51.424Z,2.70
2023-08-17T21:15:18.323Z,2.63
2023-08-17T21:17:46.154Z,2.70
2023-08-17T21:20:13.777Z,2.90
2023-08-17T21:22:46.470Z,2.25
2023-08-17T21:25:13.587Z,2.92
2023-08-17T21:27:40.435Z,2.30
2023-08-17T21:30:08.194Z,4.10
2023-08-17T21:32:35.132Z,2.30
2023-08-17T21:35:02.458Z,2.67
2023-08-17T21:37:30.032Z,2.50
2023-08-17T21:39:57.240Z,2.83
2023-08-17T21:42:24.395Z,2.22
2023-08-17T21:44:52.969Z,2.58
2023-08-17T21:47:19.815Z,2.50
2023-08-17T21:49:48.075Z,2.60
2023-08-17T21:52:15.909Z,2.47
2023-08-17T21:54:43.070Z,2.83
2023-08-17T21:57:10.211Z,2.33
2023-08-17T21:59:37.063Z,2.58
2023-08-17T22:02:04.404Z,2.45
2023-08-17T22:04:33.699Z,2.03
2023-08-17T22:07:03.996Z,3.13
2023-08-17T22:09:31.107Z,2.58
2023-08-17T22:11:57.997Z,3.53
2023-08-17T22:14:25.025Z,2.50
2023-08-17T22:16:51.955Z,2.60
2023-08-17T22:19:18.938Z,2.00
2023-08-17T22:21:45.772Z,2.22
2023-08-17T22:24:12.726Z,2.08
2023-08-17T22:26:39.632Z,2.90
2023-08-17T22:29:07.341Z,3.05
2023-08-17T22:31:34.871Z,3.05
2023-08-17T22:34:01.984Z,1.98
2023-08-17T22:36:28.884Z,3.45
2023-08-17T22:38:55.826Z,3.00
2023-08-17T22:41:22.658Z,2.85
2023-08-17T22:43:49.885Z,2.85
2023-08-17T22:46:16.828Z,2.22
2023-08-17T22:48:44.436Z,3.63
2023-08-17T22:51:14.580Z,3.35
2023-08-17T22:53:44.814Z,2.85
2023-08-17T22:58:38.598Z,3.25
2023-08-17T23:01:06.057Z,3.20
2023-08-17T23:03:32.940Z,3.90
2023-08-17T23:06:02.087Z,3.38
2023-08-17T23:08:30.170Z,3.08
2023-08-17T23:11:01.159Z,3.53
2023-08-17T23:13:28.558Z,3.20
2023-08-17T23:15:55.693Z,2.60
2023-08-17T23:18:22.718Z,2.63
2023-08-17T23:20:49.695Z,4.10
2023-08-17T23:23:16.648Z,2.78
2023-08-17T23:25:44.100Z,2.83
2023-08-17T23:28:11.170Z,2.47
2023-08-17T23:30:39.725Z,3.10
2023-08-17T23:33:07.105Z,3.28
2023-08-17T23:35:34.914Z,3.13
2023-08-17T23:38:01.955Z,2.78
2023-08-17T23:40:28.855Z,2.83
2023-08-17T23:42:55.776Z,2.70
2023-08-17T23:45:22.644Z,3.50
2023-08-17T23:47:49.597Z,2.72
2023-08-17T23:50:16.633Z,2.85
2023-08-17T23:52:43.558Z,3.05
2023-08-17T23:55:10.427Z,2.92
2023-08-17T23:57:37.881Z,4.10
